createdAt,value
2017-11-13T00:00:36.615Z,2.90
2017-11-13T00:03:41.630Z,3.43
2017-11-13T00:06:46.657Z,3.10
2017-11-13T00:09:52.262Z,2.87
2017-11-13T00:12:57.840Z,3.00
2017-11-13T00:16:03.989Z,2.90
2017-11-13T00:19:10.589Z,3.37
2017-11-13T00:22:17.164Z,2.30
2017-11-13T00:25:22.030Z,3.30
2017-11-13T00:28:27.477Z,2.87
2017-11-13T00:31:32.701Z,3.07
2017-11-13T00:34:38.561Z,2.93
2017-11-13T00:37:43.341Z,2.90
2017-11-13T00:40:48.761Z,4.03
2017-11-13T00:43:54.689Z,3.23
2017-11-13T00:47:00.397Z,2.77
2017-11-13T00:50:05.804Z,2.77
2017-11-13T00:53:11.550Z,3.00
2017-11-13T00:56:16.664Z,3.30
2017-11-13T00:59:21.881Z,2.83
2017-11-13T01:02:27.460Z,2.90
2017-11-13T01:05:32.717Z,3.27
2017-11-13T01:08:38.051Z,3.17
2017-11-13T01:11:43.019Z,3.50
2017-11-13T01:14:48.371Z,3.47
2017-11-13T01:17:53.393Z,4.30
2017-11-13T01:20:58.097Z,3.63
2017-11-13T01:24:04.117Z,3.33
2017-11-13T01:27:10.218Z,3.57
2017-11-13T01:30:15.885Z,3.27
2017-11-13T01:33:22.065Z,3.53
2017-11-13T01:36:27.552Z,3.73
2017-11-13T01:39:33.000Z,3.13
2017-11-13T01:42:38.362Z,3.70
2017-11-13T01:45:44.173Z,3.90
2017-11-13T01:48:50.020Z,3.23
2017-11-13T01:51:55.584Z,3.17
2017-11-13T01:55:00.696Z,3.40
2017-11-13T01:58:06.266Z,2.90
2017-11-13T02:01:12.353Z,2.90
2017-11-13T02:04:17.741Z,3.17
2017-11-13T02:07:22.751Z,2.30
2017-11-13T02:10:28.450Z,2.30
2017-11-13T02:13:34.125Z,2.80
2017-11-13T02:16:38.917Z,3.03
2017-11-13T02:19:43.947Z,2.43
2017-11-13T02:22:48.805Z,2.20
2017-11-13T02:25:54.491Z,2.53
2017-11-13T02:28:59.625Z,2.40
2017-11-13T02:32:05.049Z,2.40
2017-11-13T02:35:11.429Z,2.27
2017-11-13T02:38:17.521Z,2.60
2017-11-13T02:41:22.965Z,2.70
2017-11-13T02:44:28.798Z,2.50
2017-11-13T02:47:33.968Z,2.17
2017-11-13T02:50:38.948Z,2.47
2017-11-13T02:53:43.969Z,3.17
2017-11-13T02:56:49.317Z,3.03
2017-11-13T02:59:55.492Z,3.03
2017-11-13T03:03:01.190Z,3.20
2017-11-13T03:06:06.133Z,2.70
2017-11-13T03:09:11.623Z,3.00
2017-11-13T03:12:17.505Z,2.93
2017-11-13T03:15:22.921Z,3.20
2017-11-13T03:18:28.430Z,2.93
2017-11-13T03:21:34.019Z,3.20
2017-11-13T03:24:39.310Z,3.13
2017-11-13T03:27:45.165Z,3.33
2017-11-13T03:30:50.377Z,3.93
2017-11-13T03:33:56.250Z,3.50
2017-11-13T03:37:01.886Z,4.20
2017-11-13T03:40:07.156Z,4.73
2017-11-13T03:43:12.697Z,3.93
2017-11-13T03:46:18.929Z,4.73
2017-11-13T03:49:24.593Z,4.10
2017-11-13T03:52:29.399Z,4.83
2017-11-13T03:55:35.124Z,4.33
2017-11-13T03:58:41.365Z,4.10
2017-11-13T04:01:46.316Z,3.80
2017-11-13T04:04:51.670Z,3.90
2017-11-13T04:07:57.221Z,3.73
2017-11-13T04:11:03.074Z,4.10
2017-11-13T04:14:08.992Z,4.00
2017-11-13T04:17:14.173Z,3.70
2017-11-13T04:20:19.282Z,3.70
2017-11-13T04:23:25.461Z,3.70
2017-11-13T04:26:30.712Z,3.10
2017-11-13T04:29:35.706Z,3.27
2017-11-13T04:32:41.489Z,3.03
2017-11-13T04:35:47.525Z,2.63
2017-11-13T04:38:53.152Z,3.10
2017-11-13T04:41:59.573Z,2.57
2017-11-13T04:45:04.747Z,3.27
2017-11-13T04:48:11.214Z,2.77
2017-11-13T04:51:17.038Z,2.90
2017-11-13T04:54:23.332Z,2.50
2017-11-13T04:57:29.116Z,2.17
2017-11-13T05:00:34.398Z,2.30
2017-11-13T05:03:40.685Z,1.80
2017-11-13T05:06:46.241Z,2.90
2017-11-13T05:09:51.525Z,2.73
2017-11-13T05:12:56.880Z,2.20
2017-11-13T05:16:03.014Z,2.57
2017-11-13T05:19:14.425Z,2.93
2017-11-13T05:22:20.405Z,2.20
2017-11-13T05:25:25.301Z,2.50
2017-11-13T05:28:31.068Z,2.40
2017-11-13T05:31:36.153Z,2.40
2017-11-13T05:34:41.947Z,2.07
2017-11-13T05:37:47.414Z,2.57
2017-11-13T05:40:53.541Z,2.70
2017-11-13T05:43:58.965Z,2.30
2017-11-13T05:47:04.573Z,3.00
2017-11-13T05:50:10.241Z,2.70
2017-11-13T05:53:15.958Z,2.83
2017-11-13T05:56:21.292Z,2.97
2017-11-13T05:59:26.654Z,2.63
2017-11-13T06:02:31.649Z,3.00
2017-11-13T06:05:37.414Z,3.37
2017-11-13T06:08:42.401Z,3.40
2017-11-13T06:11:48.065Z,2.73
2017-11-13T06:14:54.101Z,2.73
2017-11-13T06:17:59.350Z,3.00
2017-11-13T06:21:04.834Z,3.73
2017-11-13T06:24:11.258Z,3.60
2017-11-13T06:27:16.870Z,4.23
2017-11-13T06:30:25.498Z,4.07
2017-11-13T06:33:31.199Z,3.83
2017-11-13T06:36:36.167Z,4.30
2017-11-13T06:39:41.193Z,3.70
2017-11-13T06:42:47.136Z,4.40
2017-11-13T06:45:52.737Z,4.50
2017-11-13T06:48:58.462Z,3.83
2017-11-13T06:52:04.037Z,4.10
2017-11-13T06:55:09.777Z,3.90
2017-11-13T06:58:14.785Z,4.10
2017-11-13T07:01:20.566Z,4.27
2017-11-13T07:04:27.065Z,4.53
2017-11-13T07:07:32.359Z,4.50
2017-11-13T07:10:38.514Z,4.90
2017-11-13T07:13:44.264Z,4.63
2017-11-13T07:16:50.406Z,5.40
2017-11-13T07:19:56.454Z,4.67
2017-11-13T07:23:02.340Z,4.53
2017-11-13T07:26:09.000Z,4.17
2017-11-13T07:29:14.415Z,3.97
2017-11-13T07:32:19.327Z,4.00
2017-11-13T07:35:24.916Z,4.57
2017-11-13T07:38:31.193Z,4.60
2017-11-13T07:41:37.433Z,4.30
2017-11-13T07:44:43.069Z,4.30
2017-11-13T07:47:48.653Z,5.37
2017-11-13T07:50:54.461Z,4.80
2017-11-13T07:54:00.240Z,5.30
2017-11-13T07:57:05.223Z,5.10
2017-11-13T08:00:11.425Z,5.50
2017-11-13T08:03:17.196Z,5.57
2017-11-13T08:06:22.676Z,5.40
2017-11-13T08:09:27.942Z,5.00
2017-11-13T08:12:33.106Z,5.67
2017-11-13T08:15:38.647Z,6.00
2017-11-13T08:18:43.487Z,6.00
2017-11-13T08:21:48.440Z,6.97
2017-11-13T08:24:57.004Z,7.87
2017-11-13T08:28:01.917Z,7.97
2017-11-13T08:31:06.729Z,7.90
2017-11-13T08:34:12.191Z,6.60
2017-11-13T08:37:17.390Z,5.63
2017-11-13T08:40:22.789Z,8.30
2017-11-13T08:43:27.781Z,8.50
2017-11-13T08:46:32.500Z,7.60
2017-11-13T08:49:38.644Z,6.93
2017-11-13T08:52:44.364Z,8.33
2017-11-13T08:55:49.426Z,8.50
2017-11-13T08:58:54.705Z,6.60
2017-11-13T09:02:00.640Z,7.07
2017-11-13T09:05:06.236Z,6.87
2017-11-13T09:08:11.188Z,7.67
2017-11-13T09:11:16.754Z,7.00
2017-11-13T09:14:21.873Z,7.50
2017-11-13T09:17:26.917Z,7.20
2017-11-13T09:20:32.433Z,7.07
2017-11-13T09:23:37.605Z,6.83
2017-11-13T09:26:42.905Z,6.47
2017-11-13T09:29:47.841Z,6.47
2017-11-13T09:32:52.887Z,7.40
2017-11-13T09:35:58.881Z,6.90
2017-11-13T09:39:04.466Z,6.90
2017-11-13T09:42:09.821Z,7.97
2017-11-13T09:45:15.409Z,8.23
2017-11-13T09:48:20.925Z,8.30
2017-11-13T09:51:26.584Z,8.13
2017-11-13T09:54:31.654Z,6.97
2017-11-13T09:57:36.710Z,7.93
2017-11-13T10:00:43.063Z,6.87
2017-11-13T10:03:48.721Z,6.10
2017-11-13T10:06:54.315Z,6.17
2017-11-13T10:09:59.322Z,5.73
2017-11-13T10:13:05.062Z,5.50
2017-11-13T10:16:10.281Z,6.20
2017-11-13T10:19:15.578Z,5.50
2017-11-13T10:22:20.504Z,5.53
2017-11-13T10:25:25.854Z,6.07
2017-11-13T10:28:31.397Z,5.43
2017-11-13T10:31:36.809Z,6.03
2017-11-13T10:34:42.053Z,5.83
2017-11-13T10:37:47.165Z,5.23
2017-11-13T10:40:52.299Z,5.40
2017-11-13T10:43:57.798Z,5.10
2017-11-13T10:47:03.565Z,4.43
2017-11-13T10:50:08.729Z,5.63
2017-11-13T10:53:15.421Z,4.83
2017-11-13T10:56:20.357Z,4.43
2017-11-13T10:59:25.573Z,5.30
2017-11-13T11:02:32.297Z,4.97
2017-11-13T11:05:37.188Z,4.93
2017-11-13T11:08:43.424Z,5.13
2017-11-13T11:11:48.689Z,5.00
2017-11-13T11:14:55.057Z,4.10
2017-11-13T11:18:03.079Z,4.03
2017-11-13T11:21:14.877Z,5.10
2017-11-13T11:24:20.355Z,4.57
2017-11-13T11:27:35.948Z,4.63
2017-11-13T11:30:42.356Z,4.97
2017-11-13T11:33:52.425Z,4.80
2017-11-13T11:36:59.614Z,4.60
2017-11-13T11:40:05.125Z,4.73
2017-11-13T11:43:10.752Z,4.80
2017-11-13T11:46:15.644Z,4.50
2017-11-13T11:49:23.793Z,3.70
2017-11-13T11:52:29.388Z,3.73
2017-11-13T11:59:24.877Z,4.60
2017-11-13T12:02:30.166Z,5.00
2017-11-13T12:05:35.392Z,4.67
2017-11-13T12:08:40.705Z,4.40
2017-11-13T12:11:46.401Z,4.20
2017-11-13T12:14:52.054Z,5.20
2017-11-13T12:17:56.885Z,4.33
2017-11-13T12:21:02.749Z,4.83
2017-11-13T12:24:08.146Z,4.27
2017-11-13T12:27:13.509Z,4.33
2017-11-13T12:30:18.526Z,4.33
2017-11-13T12:33:23.553Z,4.87
2017-11-13T12:36:28.579Z,5.37
2017-11-13T12:39:33.571Z,4.43
2017-11-13T12:42:38.437Z,4.70
2017-11-13T12:45:43.433Z,4.83
2017-11-13T12:48:48.349Z,4.13
2017-11-13T12:51:53.921Z,4.13
2017-11-13T12:54:59.174Z,4.30
2017-11-13T12:58:04.363Z,4.23
2017-11-13T13:01:10.042Z,3.87
2017-11-13T13:04:15.083Z,4.77
2017-11-13T13:07:19.933Z,4.03
2017-11-13T13:10:25.087Z,5.13
2017-11-13T13:13:30.470Z,4.03
2017-11-13T13:16:35.761Z,4.07
2017-11-13T13:19:41.337Z,3.57
2017-11-13T13:22:46.721Z,5.30
2017-11-13T13:25:51.797Z,3.83
2017-11-13T13:28:56.816Z,3.67
2017-11-13T13:32:01.704Z,4.00
2017-11-13T13:35:06.985Z,4.00
2017-11-13T13:38:12.509Z,3.93
2017-11-13T13:41:17.721Z,3.00
2017-11-13T13:44:23.861Z,3.37
2017-11-13T13:47:29.113Z,3.77
2017-11-13T13:50:33.841Z,3.20
2017-11-13T13:53:38.744Z,3.63
2017-11-13T13:56:44.953Z,4.10
2017-11-13T13:59:50.185Z,4.40
2017-11-13T14:02:56.619Z,4.23
2017-11-13T14:06:01.461Z,4.00
2017-11-13T14:09:06.625Z,4.60
2017-11-13T14:12:13.865Z,4.20
2017-11-13T14:15:19.596Z,3.80
2017-11-13T14:18:24.433Z,3.47
2017-11-13T14:21:29.910Z,3.90
2017-11-13T14:24:35.564Z,3.53
2017-11-13T14:27:41.336Z,3.63
2017-11-13T14:30:46.492Z,3.47
2017-11-13T14:33:52.262Z,3.90
2017-11-13T14:36:57.969Z,3.23
2017-11-13T14:40:03.013Z,3.77
2017-11-13T14:43:08.408Z,3.70
2017-11-13T14:46:13.998Z,5.03
2017-11-13T14:49:20.032Z,4.60
2017-11-13T14:52:24.905Z,4.60
2017-11-13T14:55:30.726Z,4.60
2017-11-13T14:58:36.467Z,4.10
2017-11-13T15:01:44.117Z,4.23
2017-11-13T15:04:48.897Z,4.40
2017-11-13T15:07:54.709Z,4.17
2017-11-13T15:11:01.273Z,4.50
2017-11-13T15:14:06.981Z,4.70
2017-11-13T15:17:12.309Z,4.60
2017-11-13T15:20:18.273Z,5.37
2017-11-13T15:23:24.029Z,6.20
2017-11-13T15:26:29.653Z,5.30
2017-11-13T15:29:34.562Z,5.57
2017-11-13T15:32:40.884Z,5.30
2017-11-13T15:35:45.745Z,5.87
2017-11-13T15:38:51.345Z,5.30
2017-11-13T15:41:56.213Z,6.10
2017-11-13T15:45:02.810Z,5.87
2017-11-13T15:48:07.814Z,6.53
2017-11-13T15:51:13.034Z,5.00
2017-11-13T15:54:18.524Z,6.30
2017-11-13T15:57:23.945Z,5.97
2017-11-13T16:00:30.148Z,6.57
2017-11-13T16:03:36.573Z,5.60
2017-11-13T16:06:41.677Z,5.30
2017-11-13T16:09:46.649Z,6.17
2017-11-13T16:12:52.432Z,5.57
2017-11-13T16:15:57.681Z,6.40
2017-11-13T16:19:02.709Z,6.03
2017-11-13T16:22:08.434Z,6.47
2017-11-13T16:25:14.078Z,6.00
2017-11-13T16:28:19.046Z,6.60
2017-11-13T16:31:25.081Z,6.93
2017-11-13T16:34:30.239Z,6.03
2017-11-13T16:37:35.500Z,6.07
2017-11-13T16:40:42.116Z,6.83
2017-11-13T16:43:47.347Z,5.40
2017-11-13T16:46:52.633Z,6.57
2017-11-13T16:49:57.728Z,8.97
2017-11-13T16:53:03.740Z,7.77
2017-11-13T16:56:08.909Z,6.07
2017-11-13T16:59:14.146Z,5.70
2017-11-13T17:02:19.720Z,5.50
2017-11-13T17:05:24.840Z,5.80
2017-11-13T17:08:29.904Z,5.83
2017-11-13T17:11:34.725Z,5.90
2017-11-13T17:14:39.760Z,5.40
2017-11-13T17:17:46.144Z,5.57
2017-11-13T17:20:51.149Z,5.57
2017-11-13T17:23:57.158Z,5.60
2017-11-13T17:27:02.565Z,5.70
2017-11-13T17:30:07.998Z,6.33
2017-11-13T17:33:13.646Z,6.50
2017-11-13T17:36:19.328Z,6.43
2017-11-13T17:39:24.782Z,6.20
2017-11-13T17:42:30.332Z,6.13
2017-11-13T17:45:35.510Z,6.03
2017-11-13T17:48:41.269Z,8.30
2017-11-13T17:51:46.860Z,7.73
2017-11-13T17:54:51.696Z,14.70
2017-11-13T17:57:56.844Z,12.33
2017-11-13T18:01:01.844Z,15.47
2017-11-13T18:04:06.917Z,10.10
2017-11-13T18:07:12.305Z,8.17
2017-11-13T18:10:17.121Z,9.73
2017-11-13T18:13:22.557Z,9.33
2017-11-13T18:16:27.556Z,10.17
2017-11-13T18:19:33.052Z,10.90
2017-11-13T18:22:38.616Z,16.10
2017-11-13T18:25:44.312Z,18.17
2017-11-13T18:28:49.934Z,19.50
2017-11-13T18:31:54.887Z,17.60
2017-11-13T18:34:59.774Z,15.43
2017-11-13T18:38:05.594Z,16.33
2017-11-13T18:41:11.473Z,12.60
2017-11-13T18:44:19.340Z,11.33
2017-11-13T18:47:24.249Z,10.30
2017-11-13T18:50:29.456Z,14.53
2017-11-13T18:53:35.318Z,14.60
2017-11-13T18:56:40.642Z,13.90
2017-11-13T18:59:45.558Z,14.80
2017-11-13T19:02:51.161Z,18.03
2017-11-13T19:05:56.150Z,16.47
2017-11-13T19:09:01.451Z,14.17
2017-11-13T19:12:07.453Z,13.57
2017-11-13T19:15:13.189Z,17.40
2017-11-13T19:18:18.630Z,14.63
2017-11-13T19:21:24.603Z,10.60
2017-11-13T19:24:30.090Z,10.80
2017-11-13T19:27:34.991Z,10.30
2017-11-13T19:30:40.825Z,9.83
2017-11-13T19:33:47.274Z,10.60
2017-11-13T19:36:52.777Z,10.70
2017-11-13T19:39:58.022Z,10.43
2017-11-13T19:43:03.260Z,9.53
2017-11-13T19:46:09.001Z,9.40
2017-11-13T19:49:14.413Z,9.20
2017-11-13T19:52:20.214Z,10.03
2017-11-13T19:55:26.272Z,9.70
2017-11-13T19:58:31.737Z,10.80
2017-11-13T20:01:37.202Z,15.00
2017-11-13T20:04:42.557Z,11.73
2017-11-13T20:07:47.736Z,12.60
2017-11-13T20:10:53.105Z,13.20
2017-11-13T20:13:58.017Z,13.93
2017-11-13T20:17:02.985Z,14.50
2017-11-13T20:20:07.732Z,14.67
2017-11-13T20:23:12.692Z,12.67
2017-11-13T20:26:18.552Z,11.60
2017-11-13T20:29:23.775Z,10.20
2017-11-13T20:32:29.577Z,12.50
2017-11-13T20:35:34.957Z,11.63
2017-11-13T20:38:40.396Z,16.77
2017-11-13T20:41:46.174Z,16.27
2017-11-13T20:44:51.797Z,13.73
2017-11-13T20:47:57.451Z,11.50
2017-11-13T20:51:03.109Z,10.97
2017-11-13T20:54:07.941Z,9.57
2017-11-13T20:57:12.964Z,11.53
2017-11-13T21:00:19.252Z,10.97
2017-11-13T21:03:24.789Z,10.27
2017-11-13T21:06:30.196Z,9.90
2017-11-13T21:09:35.673Z,10.00
2017-11-13T21:12:40.713Z,11.17
2017-11-13T21:15:46.052Z,11.50
2017-11-13T21:18:51.052Z,10.53
2017-11-13T21:21:56.260Z,9.90
2017-11-13T21:25:03.427Z,9.73
2017-11-13T21:28:08.535Z,9.83
2017-11-13T21:31:14.085Z,9.50
2017-11-13T21:34:19.672Z,8.60
2017-11-13T21:37:24.700Z,9.33
2017-11-13T21:40:30.597Z,10.53
2017-11-13T21:43:35.839Z,11.33
2017-11-13T21:46:41.596Z,10.07
2017-11-13T21:49:47.179Z,9.07
2017-11-13T21:52:53.141Z,9.70
2017-11-13T21:55:58.385Z,9.37
2017-11-13T21:59:03.606Z,8.53
2017-11-13T22:02:08.650Z,10.00
2017-11-13T22:05:14.305Z,9.67
2017-11-13T22:08:20.889Z,8.83
2017-11-13T22:11:26.001Z,8.80
2017-11-13T22:14:31.508Z,8.80
2017-11-13T22:17:36.847Z,8.57
2017-11-13T22:20:42.205Z,8.93
2017-11-13T22:23:47.472Z,9.90
2017-11-13T22:26:53.912Z,9.90
2017-11-13T22:29:58.705Z,11.80
2017-11-13T22:33:03.768Z,11.20
2017-11-13T22:36:09.503Z,11.70
2017-11-13T22:39:15.034Z,10.70
2017-11-13T22:42:20.404Z,11.10
2017-11-13T22:45:25.984Z,12.97
2017-11-13T22:48:30.913Z,14.63
2017-11-13T22:51:35.757Z,12.13
2017-11-13T22:54:40.778Z,10.47
2017-11-13T22:57:46.056Z,10.90
2017-11-13T23:00:51.216Z,10.80
2017-11-13T23:03:56.989Z,11.00
2017-11-13T23:07:02.173Z,10.27
2017-11-13T23:10:07.293Z,11.30
2017-11-13T23:13:12.609Z,13.40
2017-11-13T23:16:18.253Z,13.07
2017-11-13T23:19:24.092Z,13.03
2017-11-13T23:22:29.221Z,12.73
2017-11-13T23:25:34.531Z,12.87
2017-11-13T23:28:39.676Z,11.90
2017-11-13T23:31:45.404Z,12.37
2017-11-13T23:34:51.046Z,13.07
2017-11-13T23:37:55.920Z,11.43
2017-11-13T23:41:01.329Z,12.30
2017-11-13T23:44:07.197Z,15.17
2017-11-13T23:47:12.448Z,14.63
2017-11-13T23:50:17.777Z,11.67
2017-11-13T23:53:22.839Z,10.63
2017-11-13T23:56:27.790Z,10.50
2017-11-13T23:59:33.439Z,9.20
